sensor_id;sensor_type;location;lat;lon;timestamp;P1;durP1;ratioP1;P2;durP2;ratioP2
26223;SDS011;14820;48.682;8.890;2022-08-25T00:01:42;4.55;;;2.88;;
26223;SDS011;14820;48.682;8.890;2022-08-25T00:04:11;4.43;;;2.78;;
26223;SDS011;14820;48.682;8.890;2022-08-25T00:06:39;3.67;;;2.70;;
26223;SDS011;14820;48.682;8.890;2022-08-25T00:09:07;4.28;;;2.80;;
26223;SDS011;14820;48.682;8.890;2022-08-25T00:11:35;6.80;;;2.80;;
26223;SDS011;14820;48.682;8.890;2022-08-25T00:14:03;5.45;;;2.70;;
26223;SDS011;14820;48.682;8.890;2022-08-25T00:16:32;3.25;;;2.95;;
26223;SDS011;14820;48.682;8.890;2022-08-25T00:19:00;3.60;;;2.70;;
26223;SDS011;14820;48.682;8.890;2022-08-25T00:21:31;3.17;;;2.80;;
26223;SDS011;14820;48.682;8.890;2022-08-25T00:23:57;2.95;;;2.65;;
26223;SDS011;14820;48.682;8.890;2022-08-25T00:26:24;4.15;;;2.95;;
26223;SDS011;14820;48.682;8.890;2022-08-25T00:28:51;3.33;;;3.03;;
26223;SDS011;14820;48.682;8.890;2022-08-25T00:31:18;8.00;;;3.40;;
26223;SDS011;14820;48.682;8.890;2022-08-25T00:33:47;4.32;;;2.80;;
26223;SDS011;14820;48.682;8.890;2022-08-25T00:36:14;3.67;;;3.03;;
26223;SDS011;14820;48.682;8.890;2022-08-25T00:38:41;3.22;;;2.60;;
26223;SDS011;14820;48.682;8.890;2022-08-25T00:41:09;4.47;;;3.10;;
26223;SDS011;14820;48.682;8.890;2022-08-25T00:46:05;5.20;;;2.80;;
26223;SDS011;14820;48.682;8.890;2022-08-25T00:48:32;3.72;;;2.70;;
26223;SDS011;14820;48.682;8.890;2022-08-25T00:50:58;4.10;;;3.00;;
26223;SDS011;14820;48.682;8.890;2022-08-25T00:53:26;7.25;;;3.08;;
26223;SDS011;14820;48.682;8.890;2022-08-25T00:55:53;3.15;;;2.70;;
26223;SDS011;14820;48.682;8.890;2022-08-25T00:58:21;3.88;;;2.60;;
26223;SDS011;14820;48.682;8.890;2022-08-25T01:00:52;5.97;;;2.90;;
26223;SDS011;14820;48.682;8.890;2022-08-25T01:03:20;4.20;;;2.45;;
26223;SDS011;14820;48.682;8.890;2022-08-25T01:05:47;3.90;;;2.92;;
26223;SDS011;14820;48.682;8.890;2022-08-25T01:08:14;3.90;;;2.80;;
26223;SDS011;14820;48.682;8.890;2022-08-25T01:10:43;5.78;;;3.10;;
26223;SDS011;14820;48.682;8.890;2022-08-25T01:13:13;5.30;;;2.90;;
26223;SDS011;14820;48.682;8.890;2022-08-25T01:15:45;3.60;;;2.60;;
26223;SDS011;14820;48.682;8.890;2022-08-25T01:18:13;3.05;;;2.75;;
26223;SDS011;14820;48.682;8.890;2022-08-25T01:20:39;2.97;;;2.67;;
26223;SDS011;14820;48.682;8.890;2022-08-25T01:23:05;2.75;;;2.45;;
26223;SDS011;14820;48.682;8.890;2022-08-25T01:28:03;4.22;;;3.22;;
26223;SDS011;14820;48.682;8.890;2022-08-25T01:30:29;3.55;;;2.63;;
26223;SDS011;14820;48.682;8.890;2022-08-25T01:32:55;4.80;;;2.90;;
26223;SDS011;14820;48.682;8.890;2022-08-25T01:35:21;3.42;;;2.80;;
26223;SDS011;14820;48.682;8.890;2022-08-25T01:37:47;3.30;;;2.90;;
26223;SDS011;14820;48.682;8.890;2022-08-25T01:40:14;4.32;;;3.03;;
26223;SDS011;14820;48.682;8.890;2022-08-25T01:45:27;3.15;;;2.60;;
26223;SDS011;14820;48.682;8.890;2022-08-25T01:47:53;3.95;;;3.22;;
26223;SDS011;14820;48.682;8.890;2022-08-25T01:50:19;3.45;;;2.95;;
26223;SDS011;14820;48.682;8.890;2022-08-25T01:52:55;3.05;;;2.65;;
26223;SDS011;14820;48.682;8.890;2022-08-25T01:55:29;4.63;;;3.00;;
26223;SDS011;14820;48.682;8.890;2022-08-25T01:58:15;5.45;;;2.90;;
26223;SDS011;14820;48.682;8.890;2022-08-25T02:00:52;4.13;;;3.17;;
26223;SDS011;14820;48.682;8.890;2022-08-25T02:03:21;5.32;;;3.00;;
26223;SDS011;14820;48.682;8.890;2022-08-25T02:05:48;4.13;;;3.00;;
26223;SDS011;14820;48.682;8.890;2022-08-25T02:08:15;4.03;;;2.90;;
26223;SDS011;14820;48.682;8.890;2022-08-25T02:10:41;3.03;;;2.72;;
26223;SDS011;14820;48.682;8.890;2022-08-25T02:13:07;3.40;;;3.00;;
26223;SDS011;14820;48.682;8.890;2022-08-25T02:15:33;3.30;;;2.90;;
26223;SDS011;14820;48.682;8.890;2022-08-25T02:18:03;3.30;;;2.65;;
26223;SDS011;14820;48.682;8.890;2022-08-25T02:20:29;3.67;;;2.90;;
26223;SDS011;14820;48.682;8.890;2022-08-25T02:22:54;5.65;;;2.67;;
26223;SDS011;14820;48.682;8.890;2022-08-25T02:25:20;3.72;;;2.75;;
26223;SDS011;14820;48.682;8.890;2022-08-25T02:27:46;3.20;;;2.90;;
26223;SDS011;14820;48.682;8.890;2022-08-25T02:30:12;3.72;;;2.47;;
26223;SDS011;14820;48.682;8.890;2022-08-25T02:32:39;3.33;;;2.90;;
26223;SDS011;14820;48.682;8.890;2022-08-25T02:35:05;6.50;;;3.30;;
26223;SDS011;14820;48.682;8.890;2022-08-25T02:37:32;3.78;;;3.13;;
26223;SDS011;14820;48.682;8.890;2022-08-25T02:39:58;4.15;;;2.90;;
26223;SDS011;14820;48.682;8.890;2022-08-25T02:42:25;4.30;;;2.72;;
26223;SDS011;14820;48.682;8.890;2022-08-25T02:44:51;3.38;;;3.08;;
26223;SDS011;14820;48.682;8.890;2022-08-25T02:47:17;5.15;;;2.65;;
26223;SDS011;14820;48.682;8.890;2022-08-25T02:49:44;5.10;;;2.97;;
26223;SDS011;14820;48.682;8.890;2022-08-25T02:52:09;5.40;;;2.80;;
26223;SDS011;14820;48.682;8.890;2022-08-25T02:54:35;5.30;;;2.97;;
26223;SDS011;14820;48.682;8.890;2022-08-25T02:57:01;4.18;;;3.00;;
26223;SDS011;14820;48.682;8.890;2022-08-25T02:59:27;5.28;;;3.08;;
26223;SDS011;14820;48.682;8.890;2022-08-25T03:01:53;3.47;;;2.92;;
26223;SDS011;14820;48.682;8.890;2022-08-25T03:04:18;4.00;;;3.10;;
26223;SDS011;14820;48.682;8.890;2022-08-25T03:06:44;3.28;;;2.83;;
26223;SDS011;14820;48.682;8.890;2022-08-25T03:09:10;4.38;;;2.67;;
26223;SDS011;14820;48.682;8.890;2022-08-25T03:11:36;3.08;;;2.78;;
26223;SDS011;14820;48.682;8.890;2022-08-25T03:14:03;4.38;;;2.90;;
26223;SDS011;14820;48.682;8.890;2022-08-25T03:16:30;4.03;;;2.90;;
26223;SDS011;14820;48.682;8.890;2022-08-25T03:18:56;4.30;;;3.50;;
26223;SDS011;14820;48.682;8.890;2022-08-25T03:21:22;4.88;;;3.25;;
26223;SDS011;14820;48.682;8.890;2022-08-25T03:23:48;4.55;;;2.92;;
26223;SDS011;14820;48.682;8.890;2022-08-25T03:26:14;4.28;;;2.95;;
26223;SDS011;14820;48.682;8.890;2022-08-25T03:28:59;6.32;;;3.20;;
26223;SDS011;14820;48.682;8.890;2022-08-25T03:31:29;4.47;;;3.17;;
26223;SDS011;14820;48.682;8.890;2022-08-25T03:33:56;4.75;;;3.30;;
26223;SDS011;14820;48.682;8.890;2022-08-25T03:36:22;5.35;;;3.15;;
26223;SDS011;14820;48.682;8.890;2022-08-25T03:38:50;3.28;;;2.97;;
26223;SDS011;14820;48.682;8.890;2022-08-25T03:41:18;5.63;;;2.90;;
26223;SDS011;14820;48.682;8.890;2022-08-25T03:43:46;4.30;;;3.03;;
26223;SDS011;14820;48.682;8.890;2022-08-25T03:46:18;5.85;;;3.40;;
26223;SDS011;14820;48.682;8.890;2022-08-25T03:48:46;8.93;;;3.20;;
26223;SDS011;14820;48.682;8.890;2022-08-25T03:51:17;3.63;;;2.90;;
26223;SDS011;14820;48.682;8.890;2022-08-25T03:53:44;2.78;;;2.55;;
26223;SDS011;14820;48.682;8.890;2022-08-25T03:56:10;3.58;;;3.00;;
26223;SDS011;14820;48.682;8.890;2022-08-25T03:58:35;4.03;;;3.08;;
26223;SDS011;14820;48.682;8.890;2022-08-25T04:01:01;3.92;;;2.85;;
26223;SDS011;14820;48.682;8.890;2022-08-25T04:03:27;4.18;;;2.80;;
26223;SDS011;14820;48.682;8.890;2022-08-25T04:05:52;4.93;;;3.00;;
26223;SDS011;14820;48.682;8.890;2022-08-25T04:08:19;5.65;;;3.38;;
26223;SDS011;14820;48.682;8.890;2022-08-25T04:10:44;3.55;;;3.17;;
26223;SDS011;14820;48.682;8.890;2022-08-25T04:13:10;3.30;;;3.00;;
26223;SDS011;14820;48.682;8.890;2022-08-25T04:15:37;4.00;;;3.30;;
26223;SDS011;14820;48.682;8.890;2022-08-25T04:18:07;4.15;;;3.40;;
26223;SDS011;14820;48.682;8.890;2022-08-25T04:20:35;4.20;;;2.92;;
26223;SDS011;14820;48.682;8.890;2022-08-25T04:23:01;4.10;;;3.00;;
26223;SDS011;14820;48.682;8.890;2022-08-25T04:25:27;3.63;;;2.70;;
26223;SDS011;14820;48.682;8.890;2022-08-25T04:27:53;3.75;;;3.05;;
26223;SDS011;14820;48.682;8.890;2022-08-25T04:30:19;8.60;;;3.95;;
26223;SDS011;14820;48.682;8.890;2022-08-25T04:32:46;3.50;;;3.03;;
26223;SDS011;14820;48.682;8.890;2022-08-25T04:35:13;3.38;;;3.05;;
26223;SDS011;14820;48.682;8.890;2022-08-25T04:37:39;3.60;;;3.13;;
26223;SDS011;14820;48.682;8.890;2022-08-25T04:40:05;3.92;;;3.33;;
26223;SDS011;14820;48.682;8.890;2022-08-25T04:42:32;4.22;;;3.30;;
26223;SDS011;14820;48.682;8.890;2022-08-25T04:44:59;6.07;;;3.28;;
26223;SDS011;14820;48.682;8.890;2022-08-25T04:47:26;3.58;;;3.05;;
26223;SDS011;14820;48.682;8.890;2022-08-25T04:49:52;4.43;;;3.10;;
26223;SDS011;14820;48.682;8.890;2022-08-25T04:52:18;4.35;;;2.95;;
26223;SDS011;14820;48.682;8.890;2022-08-25T04:54:44;3.83;;;3.10;;
26223;SDS011;14820;48.682;8.890;2022-08-25T04:57:10;3.47;;;3.08;;
26223;SDS011;14820;48.682;8.890;2022-08-25T04:59:36;4.03;;;3.30;;
26223;SDS011;14820;48.682;8.890;2022-08-25T05:02:02;6.70;;;3.53;;
26223;SDS011;14820;48.682;8.890;2022-08-25T05:04:29;4.00;;;3.30;;
26223;SDS011;14820;48.682;8.890;2022-08-25T05:06:56;5.10;;;3.40;;
26223;SDS011;14820;48.682;8.890;2022-08-25T05:09:22;3.90;;;3.00;;
26223;SDS011;14820;48.682;8.890;2022-08-25T05:11:48;8.00;;;3.28;;
26223;SDS011;14820;48.682;8.890;2022-08-25T05:14:14;4.30;;;3.83;;
26223;SDS011;14820;48.682;8.890;2022-08-25T05:16:42;4.60;;;3.20;;
26223;SDS011;14820;48.682;8.890;2022-08-25T05:19:08;4.30;;;3.50;;
26223;SDS011;14820;48.682;8.890;2022-08-25T05:21:34;6.38;;;3.83;;
26223;SDS011;14820;48.682;8.890;2022-08-25T05:24:01;5.38;;;3.80;;
26223;SDS011;14820;48.682;8.890;2022-08-25T05:26:27;4.28;;;3.75;;
26223;SDS011;14820;48.682;8.890;2022-08-25T05:28:58;6.10;;;3.75;;
26223;SDS011;14820;48.682;8.890;2022-08-25T05:31:26;3.90;;;3.50;;
26223;SDS011;14820;48.682;8.890;2022-08-25T05:33:53;7.20;;;3.88;;
26223;SDS011;14820;48.682;8.890;2022-08-25T05:36:19;4.32;;;3.80;;
26223;SDS011;14820;48.682;8.890;2022-08-25T05:38:45;6.43;;;3.25;;
26223;SDS011;14820;48.682;8.890;2022-08-25T05:41:16;4.63;;;3.40;;
26223;SDS011;14820;48.682;8.890;2022-08-25T05:43:44;6.00;;;4.03;;
26223;SDS011;14820;48.682;8.890;2022-08-25T05:46:12;6.30;;;4.25;;
26223;SDS011;14820;48.682;8.890;2022-08-25T05:48:39;4.95;;;3.70;;
26223;SDS011;14820;48.682;8.890;2022-08-25T05:51:06;5.85;;;3.90;;
26223;SDS011;14820;48.682;8.890;2022-08-25T05:53:34;4.05;;;3.50;;
26223;SDS011;14820;48.682;8.890;2022-08-25T05:56:00;5.95;;;3.55;;
26223;SDS011;14820;48.682;8.890;2022-08-25T05:58:27;7.80;;;3.90;;
26223;SDS011;14820;48.682;8.890;2022-08-25T06:00:53;4.10;;;3.65;;
26223;SDS011;14820;48.682;8.890;2022-08-25T06:03:20;4.60;;;3.55;;
26223;SDS011;14820;48.682;8.890;2022-08-25T06:05:46;5.75;;;3.80;;
26223;SDS011;14820;48.682;8.890;2022-08-25T06:08:12;4.80;;;3.88;;
26223;SDS011;14820;48.682;8.890;2022-08-25T06:10:39;5.57;;;3.58;;
26223;SDS011;14820;48.682;8.890;2022-08-25T06:13:06;3.45;;;3.08;;
26223;SDS011;14820;48.682;8.890;2022-08-25T06:15:32;4.63;;;3.78;;
26223;SDS011;14820;48.682;8.890;2022-08-25T06:17:58;9.68;;;4.10;;
26223;SDS011;14820;48.682;8.890;2022-08-25T06:20:26;6.28;;;4.45;;
26223;SDS011;14820;48.682;8.890;2022-08-25T06:22:53;3.90;;;3.50;;
26223;SDS011;14820;48.682;8.890;2022-08-25T06:25:21;4.68;;;3.42;;
26223;SDS011;14820;48.682;8.890;2022-08-25T06:27:48;4.18;;;3.70;;
26223;SDS011;14820;48.682;8.890;2022-08-25T06:30:15;4.30;;;3.72;;
26223;SDS011;14820;48.682;8.890;2022-08-25T06:32:43;3.28;;;2.88;;
26223;SDS011;14820;48.682;8.890;2022-08-25T06:35:13;7.13;;;3.70;;
26223;SDS011;14820;48.682;8.890;2022-08-25T06:37:42;4.53;;;3.95;;
26223;SDS011;14820;48.682;8.890;2022-08-25T06:40:08;8.88;;;3.83;;
26223;SDS011;14820;48.682;8.890;2022-08-25T06:42:36;4.00;;;3.60;;
26223;SDS011;14820;48.682;8.890;2022-08-25T06:45:02;5.53;;;3.72;;
26223;SDS011;14820;48.682;8.890;2022-08-25T06:47:29;8.85;;;4.53;;
26223;SDS011;14820;48.682;8.890;2022-08-25T06:49:54;4.65;;;4.07;;
26223;SDS011;14820;48.682;8.890;2022-08-25T06:52:20;5.78;;;4.40;;
26223;SDS011;14820;48.682;8.890;2022-08-25T06:54:46;5.15;;;4.07;;
26223;SDS011;14820;48.682;8.890;2022-08-25T06:57:12;5.95;;;4.20;;
26223;SDS011;14820;48.682;8.890;2022-08-25T06:59:37;6.88;;;4.38;;
26223;SDS011;14820;48.682;8.890;2022-08-25T07:02:03;6.13;;;4.32;;
26223;SDS011;14820;48.682;8.890;2022-08-25T07:04:31;5.10;;;4.05;;
26223;SDS011;14820;48.682;8.890;2022-08-25T07:06:57;7.63;;;4.80;;
26223;SDS011;14820;48.682;8.890;2022-08-25T07:09:23;6.55;;;4.28;;
26223;SDS011;14820;48.682;8.890;2022-08-25T07:11:48;6.53;;;4.53;;
26223;SDS011;14820;48.682;8.890;2022-08-25T07:14:15;7.85;;;4.18;;
26223;SDS011;14820;48.682;8.890;2022-08-25T07:16:42;9.48;;;4.55;;
26223;SDS011;14820;48.682;8.890;2022-08-25T07:19:08;5.90;;;4.43;;
26223;SDS011;14820;48.682;8.890;2022-08-25T07:21:34;6.05;;;4.25;;
26223;SDS011;14820;48.682;8.890;2022-08-25T07:24:05;5.72;;;4.32;;
26223;SDS011;14820;48.682;8.890;2022-08-25T07:26:33;6.18;;;3.97;;
26223;SDS011;14820;48.682;8.890;2022-08-25T07:29:00;5.93;;;4.68;;
26223;SDS011;14820;48.682;8.890;2022-08-25T07:31:27;5.30;;;4.35;;
26223;SDS011;14820;48.682;8.890;2022-08-25T07:33:53;5.95;;;4.65;;
26223;SDS011;14820;48.682;8.890;2022-08-25T07:36:38;5.53;;;4.68;;
26223;SDS011;14820;48.682;8.890;2022-08-25T07:39:04;5.38;;;4.50;;
26223;SDS011;14820;48.682;8.890;2022-08-25T07:41:39;5.63;;;4.32;;
26223;SDS011;14820;48.682;8.890;2022-08-25T07:44:06;5.63;;;4.63;;
26223;SDS011;14820;48.682;8.890;2022-08-25T07:46:33;5.53;;;4.55;;
26223;SDS011;14820;48.682;8.890;2022-08-25T07:48:59;4.85;;;4.20;;
26223;SDS011;14820;48.682;8.890;2022-08-25T07:51:24;6.40;;;4.30;;
26223;SDS011;14820;48.682;8.890;2022-08-25T07:53:50;6.57;;;4.53;;
26223;SDS011;14820;48.682;8.890;2022-08-25T07:56:16;5.72;;;4.32;;
26223;SDS011;14820;48.682;8.890;2022-08-25T07:58:42;4.68;;;4.15;;
26223;SDS011;14820;48.682;8.890;2022-08-25T08:01:12;5.97;;;4.50;;
26223;SDS011;14820;48.682;8.890;2022-08-25T08:03:41;4.85;;;4.00;;
26223;SDS011;14820;48.682;8.890;2022-08-25T08:06:08;4.88;;;4.13;;
26223;SDS011;14820;48.682;8.890;2022-08-25T08:08:36;7.18;;;3.85;;
26223;SDS011;14820;48.682;8.890;2022-08-25T08:11:02;6.10;;;4.07;;
26223;SDS011;14820;48.682;8.890;2022-08-25T08:13:28;7.38;;;4.93;;
26223;SDS011;14820;48.682;8.890;2022-08-25T08:15:54;5.18;;;4.38;;
26223;SDS011;14820;48.682;8.890;2022-08-25T08:18:20;5.90;;;4.05;;
26223;SDS011;14820;48.682;8.890;2022-08-25T08:20:46;11.38;;;4.05;;
26223;SDS011;14820;48.682;8.890;2022-08-25T08:23:13;5.55;;;4.28;;
26223;SDS011;14820;48.682;8.890;2022-08-25T08:25:39;4.78;;;4.20;;
26223;SDS011;14820;48.682;8.890;2022-08-25T08:28:05;9.02;;;4.28;;
26223;SDS011;14820;48.682;8.890;2022-08-25T08:30:31;5.28;;;3.65;;
26223;SDS011;14820;48.682;8.890;2022-08-25T08:32:57;7.28;;;3.60;;
26223;SDS011;14820;48.682;8.890;2022-08-25T08:35:23;4.60;;;3.65;;
26223;SDS011;14820;48.682;8.890;2022-08-25T08:37:48;4.93;;;3.80;;
26223;SDS011;14820;48.682;8.890;2022-08-25T08:40:15;4.72;;;3.70;;
26223;SDS011;14820;48.682;8.890;2022-08-25T08:42:46;4.28;;;3.88;;
26223;SDS011;14820;48.682;8.890;2022-08-25T08:51:05;4.40;;;3.50;;
26223;SDS011;14820;48.682;8.890;2022-08-25T08:56:59;4.63;;;4.15;;
26223;SDS011;14820;48.682;8.890;2022-08-25T08:59:21;7.13;;;4.13;;
26223;SDS011;14820;48.682;8.890;2022-08-25T09:02:11;4.78;;;3.58;;
26223;SDS011;14820;48.682;8.890;2022-08-25T09:04:47;4.80;;;3.65;;
26223;SDS011;14820;48.682;8.890;2022-08-25T09:07:20;4.85;;;3.75;;
26223;SDS011;14820;48.682;8.890;2022-08-25T09:09:50;4.80;;;3.60;;
26223;SDS011;14820;48.682;8.890;2022-08-25T09:12:25;4.90;;;4.00;;
26223;SDS011;14820;48.682;8.890;2022-08-25T09:15:08;4.15;;;3.58;;
26223;SDS011;14820;48.682;8.890;2022-08-25T09:18:26;5.13;;;4.25;;
26223;SDS011;14820;48.682;8.890;2022-08-25T09:29:20;4.40;;;3.80;;
26223;SDS011;14820;48.682;8.890;2022-08-25T09:31:48;4.40;;;3.55;;
26223;SDS011;14820;48.682;8.890;2022-08-25T09:34:19;5.65;;;3.75;;
26223;SDS011;14820;48.682;8.890;2022-08-25T09:36:46;4.88;;;3.72;;
26223;SDS011;14820;48.682;8.890;2022-08-25T09:39:16;5.03;;;3.65;;
26223;SDS011;14820;48.682;8.890;2022-08-25T09:44:19;4.68;;;3.88;;
26223;SDS011;14820;48.682;8.890;2022-08-25T09:49:21;4.22;;;3.40;;
26223;SDS011;14820;48.682;8.890;2022-08-25T09:52:15;6.72;;;3.97;;
26223;SDS011;14820;48.682;8.890;2022-08-25T09:54:41;6.07;;;3.55;;
26223;SDS011;14820;48.682;8.890;2022-08-25T09:57:07;6.78;;;3.97;;
26223;SDS011;14820;48.682;8.890;2022-08-25T09:59:34;4.50;;;3.50;;
26223;SDS011;14820;48.682;8.890;2022-08-25T10:02:02;4.78;;;3.83;;
26223;SDS011;14820;48.682;8.890;2022-08-25T10:04:34;7.20;;;3.80;;
26223;SDS011;14820;48.682;8.890;2022-08-25T10:07:03;6.75;;;3.35;;
26223;SDS011;14820;48.682;8.890;2022-08-25T10:09:50;3.95;;;3.50;;
26223;SDS011;14820;48.682;8.890;2022-08-25T10:12:29;7.45;;;3.72;;
26223;SDS011;14820;48.682;8.890;2022-08-25T10:15:46;6.25;;;3.67;;
26223;SDS011;14820;48.682;8.890;2022-08-25T10:17:56;4.25;;;3.42;;
26223;SDS011;14820;48.682;8.890;2022-08-25T10:21:05;6.00;;;3.72;;
26223;SDS011;14820;48.682;8.890;2022-08-25T10:23:37;4.57;;;3.50;;
26223;SDS011;14820;48.682;8.890;2022-08-25T10:26:14;5.13;;;3.70;;
26223;SDS011;14820;48.682;8.890;2022-08-25T10:29:02;5.70;;;3.33;;
26223;SDS011;14820;48.682;8.890;2022-08-25T10:31:39;5.85;;;3.53;;
26223;SDS011;14820;48.682;8.890;2022-08-25T10:40:01;3.00;;;2.63;;
26223;SDS011;14820;48.682;8.890;2022-08-25T10:42:40;4.70;;;2.70;;
26223;SDS011;14820;48.682;8.890;2022-08-25T10:45:15;3.97;;;3.28;;
26223;SDS011;14820;48.682;8.890;2022-08-25T10:53:59;3.47;;;3.00;;
26223;SDS011;14820;48.682;8.890;2022-08-25T10:56:55;4.72;;;3.45;;
26223;SDS011;14820;48.682;8.890;2022-08-25T11:07:19;3.38;;;2.90;;
26223;SDS011;14820;48.682;8.890;2022-08-25T11:09:51;3.03;;;2.60;;
26223;SDS011;14820;48.682;8.890;2022-08-25T11:12:41;2.67;;;2.03;;
26223;SDS011;14820;48.682;8.890;2022-08-25T11:15:29;4.70;;;2.53;;
26223;SDS011;14820;48.682;8.890;2022-08-25T11:18:25;8.27;;;2.80;;
26223;SDS011;14820;48.682;8.890;2022-08-25T11:21:11;3.85;;;3.08;;
26223;SDS011;14820;48.682;8.890;2022-08-25T11:23:45;5.13;;;3.00;;
26223;SDS011;14820;48.682;8.890;2022-08-25T11:26:21;3.70;;;3.17;;
26223;SDS011;14820;48.682;8.890;2022-08-25T11:28:58;9.15;;;3.10;;
26223;SDS011;14820;48.682;8.890;2022-08-25T11:31:45;3.95;;;2.85;;
26223;SDS011;14820;48.682;8.890;2022-08-25T11:34:15;6.05;;;2.90;;
26223;SDS011;14820;48.682;8.890;2022-08-25T11:36:48;6.22;;;2.90;;
26223;SDS011;14820;48.682;8.890;2022-08-25T11:53:42;4.18;;;2.60;;
26223;SDS011;14820;48.682;8.890;2022-08-25T11:56:10;4.75;;;2.85;;
26223;SDS011;14820;48.682;8.890;2022-08-25T11:58:54;3.15;;;2.75;;
26223;SDS011;14820;48.682;8.890;2022-08-25T12:04:11;12.68;;;2.92;;
26223;SDS011;14820;48.682;8.890;2022-08-25T12:07:14;3.10;;;2.80;;
26223;SDS011;14820;48.682;8.890;2022-08-25T12:09:29;5.93;;;2.63;;
26223;SDS011;14820;48.682;8.890;2022-08-25T12:11:58;3.03;;;2.72;;
26223;SDS011;14820;48.682;8.890;2022-08-25T12:14:50;2.92;;;2.60;;
26223;SDS011;14820;48.682;8.890;2022-08-25T12:17:20;2.50;;;2.30;;
26223;SDS011;14820;48.682;8.890;2022-08-25T12:19:55;3.42;;;2.50;;
26223;SDS011;14820;48.682;8.890;2022-08-25T12:24:51;4.95;;;2.42;;
26223;SDS011;14820;48.682;8.890;2022-08-25T12:29:51;2.97;;;2.67;;
26223;SDS011;14820;48.682;8.890;2022-08-25T12:37:58;4.40;;;2.60;;
26223;SDS011;14820;48.682;8.890;2022-08-25T12:43:21;6.07;;;3.00;;
26223;SDS011;14820;48.682;8.890;2022-08-25T12:51:57;4.50;;;2.50;;
26223;SDS011;14820;48.682;8.890;2022-08-25T12:59:41;3.35;;;2.40;;
26223;SDS011;14820;48.682;8.890;2022-08-25T13:16:30;4.20;;;2.45;;
26223;SDS011;14820;48.682;8.890;2022-08-25T13:18:57;4.65;;;2.63;;
26223;SDS011;14820;48.682;8.890;2022-08-25T13:21:36;4.30;;;2.25;;
26223;SDS011;14820;48.682;8.890;2022-08-25T13:27:04;3.65;;;2.28;;
26223;SDS011;14820;48.682;8.890;2022-08-25T13:29:33;3.75;;;2.53;;
26223;SDS011;14820;48.682;8.890;2022-08-25T13:32:04;4.28;;;2.70;;
26223;SDS011;14820;48.682;8.890;2022-08-25T13:34:33;3.75;;;2.47;;
26223;SDS011;14820;48.682;8.890;2022-08-25T13:37:24;2.67;;;2.13;;
26223;SDS011;14820;48.682;8.890;2022-08-25T13:40:09;3.80;;;2.47;;
26223;SDS011;14820;48.682;8.890;2022-08-25T13:42:58;2.50;;;2.30;;
26223;SDS011;14820;48.682;8.890;2022-08-25T13:45:29;2.42;;;2.22;;
26223;SDS011;14820;48.682;8.890;2022-08-25T13:48:01;4.03;;;2.37;;
26223;SDS011;14820;48.682;8.890;2022-08-25T13:50:29;3.08;;;2.42;;
26223;SDS011;14820;48.682;8.890;2022-08-25T13:53:07;3.10;;;2.30;;
26223;SDS011;14820;48.682;8.890;2022-08-25T13:58:17;2.53;;;2.33;;
26223;SDS011;14820;48.682;8.890;2022-08-25T14:00:59;3.47;;;2.30;;
26223;SDS011;14820;48.682;8.890;2022-08-25T14:03:46;2.47;;;2.28;;
26223;SDS011;14820;48.682;8.890;2022-08-25T14:08:42;3.90;;;2.38;;
26223;SDS011;14820;48.682;8.890;2022-08-25T14:11:25;5.10;;;2.42;;
26223;SDS011;14820;48.682;8.890;2022-08-25T14:13:58;2.53;;;2.30;;
26223;SDS011;14820;48.682;8.890;2022-08-25T14:16:26;5.13;;;2.33;;
26223;SDS011;14820;48.682;8.890;2022-08-25T14:18:56;3.30;;;2.35;;
26223;SDS011;14820;48.682;8.890;2022-08-25T14:21:28;2.20;;;2.00;;
26223;SDS011;14820;48.682;8.890;2022-08-25T14:23:55;2.65;;;2.25;;
26223;SDS011;14820;48.682;8.890;2022-08-25T14:26:22;2.63;;;2.15;;
26223;SDS011;14820;48.682;8.890;2022-08-25T14:28:48;6.15;;;2.20;;
26223;SDS011;14820;48.682;8.890;2022-08-25T14:31:28;3.67;;;2.45;;
26223;SDS011;14820;48.682;8.890;2022-08-25T14:34:04;3.47;;;2.30;;
26223;SDS011;14820;48.682;8.890;2022-08-25T14:36:33;3.55;;;2.35;;
26223;SDS011;14820;48.682;8.890;2022-08-25T14:39:00;6.50;;;2.30;;
26223;SDS011;14820;48.682;8.890;2022-08-25T14:41:31;3.80;;;2.28;;
26223;SDS011;14820;48.682;8.890;2022-08-25T14:44:01;2.72;;;2.40;;
26223;SDS011;14820;48.682;8.890;2022-08-25T14:46:30;4.07;;;2.15;;
26223;SDS011;14820;48.682;8.890;2022-08-25T14:48:59;4.68;;;2.70;;
26223;SDS011;14820;48.682;8.890;2022-08-25T14:51:28;4.15;;;2.60;;
26223;SDS011;14820;48.682;8.890;2022-08-25T14:53:58;4.47;;;2.28;;
26223;SDS011;14820;48.682;8.890;2022-08-25T14:56:26;2.95;;;2.20;;
26223;SDS011;14820;48.682;8.890;2022-08-25T14:58:52;2.92;;;2.47;;
26223;SDS011;14820;48.682;8.890;2022-08-25T15:01:18;2.83;;;2.38;;
26223;SDS011;14820;48.682;8.890;2022-08-25T15:03:47;3.70;;;2.40;;
26223;SDS011;14820;48.682;8.890;2022-08-25T15:06:15;3.55;;;2.22;;
26223;SDS011;14820;48.682;8.890;2022-08-25T15:08:42;4.28;;;2.40;;
26223;SDS011;14820;48.682;8.890;2022-08-25T15:11:26;3.03;;;2.25;;
26223;SDS011;14820;48.682;8.890;2022-08-25T15:13:52;2.53;;;2.30;;
26223;SDS011;14820;48.682;8.890;2022-08-25T15:16:23;2.17;;;1.98;;
26223;SDS011;14820;48.682;8.890;2022-08-25T15:18:53;5.07;;;2.28;;
26223;SDS011;14820;48.682;8.890;2022-08-25T15:21:19;2.78;;;1.95;;
26223;SDS011;14820;48.682;8.890;2022-08-25T15:23:45;2.30;;;2.10;;
26223;SDS011;14820;48.682;8.890;2022-08-25T15:26:11;3.60;;;2.47;;
26223;SDS011;14820;48.682;8.890;2022-08-25T15:28:39;3.95;;;2.30;;
26223;SDS011;14820;48.682;8.890;2022-08-25T15:31:08;2.60;;;1.98;;
26223;SDS011;14820;48.682;8.890;2022-08-25T15:33:36;2.38;;;1.98;;
26223;SDS011;14820;48.682;8.890;2022-08-25T15:36:03;3.95;;;2.40;;
26223;SDS011;14820;48.682;8.890;2022-08-25T15:38:35;4.85;;;2.20;;
26223;SDS011;14820;48.682;8.890;2022-08-25T15:41:05;3.35;;;2.22;;
26223;SDS011;14820;48.682;8.890;2022-08-25T15:43:32;2.33;;;1.92;;
26223;SDS011;14820;48.682;8.890;2022-08-25T15:45:59;3.28;;;2.22;;
26223;SDS011;14820;48.682;8.890;2022-08-25T15:48:25;2.58;;;2.03;;
26223;SDS011;14820;48.682;8.890;2022-08-25T15:50:55;2.15;;;1.85;;
26223;SDS011;14820;48.682;8.890;2022-08-25T15:53:22;2.47;;;2.10;;
26223;SDS011;14820;48.682;8.890;2022-08-25T15:55:50;2.42;;;2.00;;
26223;SDS011;14820;48.682;8.890;2022-08-25T15:58:16;3.45;;;1.90;;
26223;SDS011;14820;48.682;8.890;2022-08-25T16:00:43;2.47;;;2.15;;
26223;SDS011;14820;48.682;8.890;2022-08-25T16:03:10;3.78;;;2.13;;
26223;SDS011;14820;48.682;8.890;2022-08-25T16:05:36;3.08;;;2.05;;
26223;SDS011;14820;48.682;8.890;2022-08-25T16:08:03;2.00;;;1.80;;
26223;SDS011;14820;48.682;8.890;2022-08-25T16:10:32;3.42;;;2.00;;
26223;SDS011;14820;48.682;8.890;2022-08-25T16:12:59;2.13;;;1.92;;
26223;SDS011;14820;48.682;8.890;2022-08-25T16:15:24;3.33;;;2.30;;
26223;SDS011;14820;48.682;8.890;2022-08-25T16:17:51;2.67;;;1.98;;
26223;SDS011;14820;48.682;8.890;2022-08-25T16:20:17;2.13;;;1.90;;
26223;SDS011;14820;48.682;8.890;2022-08-25T16:22:43;2.22;;;1.90;;
26223;SDS011;14820;48.682;8.890;2022-08-25T16:25:09;2.22;;;2.00;;
26223;SDS011;14820;48.682;8.890;2022-08-25T16:27:35;2.28;;;2.08;;
26223;SDS011;14820;48.682;8.890;2022-08-25T16:30:01;3.20;;;2.08;;
26223;SDS011;14820;48.682;8.890;2022-08-25T16:32:26;2.42;;;2.15;;
26223;SDS011;14820;48.682;8.890;2022-08-25T16:34:52;2.30;;;2.10;;
26223;SDS011;14820;48.682;8.890;2022-08-25T16:37:18;2.97;;;2.03;;
26223;SDS011;14820;48.682;8.890;2022-08-25T16:39:43;2.72;;;2.47;;
26223;SDS011;14820;48.682;8.890;2022-08-25T16:42:10;3.10;;;1.98;;
26223;SDS011;14820;48.682;8.890;2022-08-25T16:44:36;2.03;;;1.80;;
26223;SDS011;14820;48.682;8.890;2022-08-25T16:47:04;4.55;;;2.10;;
26223;SDS011;14820;48.682;8.890;2022-08-25T16:49:29;2.92;;;1.70;;
26223;SDS011;14820;48.682;8.890;2022-08-25T16:51:55;3.03;;;2.10;;
26223;SDS011;14820;48.682;8.890;2022-08-25T16:54:21;3.47;;;2.17;;
26223;SDS011;14820;48.682;8.890;2022-08-25T16:57:05;2.03;;;1.83;;